NBEK1: Neosho R at Burlingame Rd nr Emporia KS

                                SHEF ID:       NBEK1     NEOSHO R AT BURLINGAME RD NR EMP
STATION TYPE:

PRECIP STAGE STAGE(2) RIV-FLOW BAT-LOAD
in ft ft cfs volt
Ccp-Rev Ccp-Rev Ccp-Rev Ccp-Rev Ccp-Rev
(America/Chicago)
04/28 00:00 0.00 20.64 9.39 8815 12.37
04/28 01:00 0.00 20.66 9.42 8829 12.34
04/28 02:00 0.00 20.52 9.38 8733 12.31
04/28 03:00 0.00 20.19 9.23 8511 12.28
04/28 04:00 0.00 19.77 9.09 8229 12.25
04/28 05:00 0.00 19.22 8.94 7865 12.21
04/28 06:00 0.00 18.58 8.71 7448 12.16
04/28 07:00 0.00 17.87 8.47 6992 12.14
04/28 08:00 0.00 17.07 8.20 6488 12.17
04/28 09:00 0.00 16.17 7.89 5935 12.31
04/28 10:00 0.00 15.22 7.58 5366 12.91
04/28 11:00 0.00 14.19 7.22 4769 12.89
04/28 12:00 0.00 13.14 6.87 4181 13.17
04/28 13:00 0.00 12.12 6.53 3631 13.06
04/28 14:00 0.00 11.17 6.20 3140 12.98
04/28 15:00 0.00 10.34 5.92 2728 12.81
04/28 16:00 0.00 9.62 5.67 2384 12.71
04/28 17:00 0.00 9.03 5.47 2112 12.70
04/28 18:00 0.00 8.56 5.31 1903 12.65
04/28 19:00 0.00 8.20 5.19 1747 12.65
04/28 20:00 0.00 7.90 5.10 1620 12.56
04/28 21:00 0.00 7.66 4.99 1520 12.51
04/28 22:00 0.00 7.44 4.94 1430 12.47
04/28 23:00 0.00 7.26 4.87 1358 12.46
Data processed at Wed 29Apr2026 04:36 GMT

NOTICE: If you are parsing this page

Please convert to using our Data API. Starting early 2026 we will be migrating to: https://water.usace.army.mil with modern pages rendered in JavaScript. When this migration completes you will no longer be able to scrape this page! CWMSDataAPI (CDA)

Timeseries IDs (TSIDs)

TSIDs used from left to right in the data table
EMPO.Precip-Inc.Total.1Hour.1Hour.Ccp-Rev
EMPO.Stage.Inst.1Hour.0.Ccp-Rev
EMPO.Stage-Alt.Inst.1Hour.0.Ccp-Rev
EMPO.Flow.Inst.1Hour.0.Ccp-Rev
EMPO.Volt-Battery Load.Inst.1Hour.0.Ccp-Rev

                            

All information presented herein is the property of the government of the United States of America and may be revised or deleted at any time without prior notice. Dissemination of this information without the expressed written consent of the Public Affairs Office, Tulsa District U.S. Army Corps of Engineers is strictly prohibited. These data are gathered electronically and, as presented, have NOT undergone any form of quality control. These data are NOT guaranteed to be valid or correct.